createdAt,value
2022-10-05T00:00:56.129Z,100560.34
2022-10-05T00:03:39.177Z,100564.38
2022-10-05T00:06:11.453Z,100564.55
2022-10-05T00:08:39.554Z,100563.86
2022-10-05T00:11:08.928Z,100566.84
2022-10-05T00:13:37.155Z,100564.36
2022-10-05T00:16:13.859Z,100561.89
2022-10-05T00:18:45.639Z,100560.67
2022-10-05T00:21:23.187Z,100555.77
2022-10-05T00:23:52.193Z,100553.65
2022-10-05T00:26:26.318Z,100550.67
2022-10-05T00:28:55.280Z,100549.98
2022-10-05T00:31:26.600Z,100555.77
2022-10-05T00:33:55.810Z,100540.32
2022-10-05T00:36:26.210Z,100545.94
2022-10-05T00:38:55.196Z,100532.06
2022-10-05T00:41:29.569Z,100529.44
2022-10-05T00:44:18.635Z,100525.73
2022-10-05T00:47:05.622Z,100524.70
2022-10-05T00:49:42.700Z,100514.88
2022-10-05T00:52:37.487Z,100508.38
2022-10-05T00:55:32.997Z,100502.41
2022-10-05T00:58:22.729Z,100493.99
2022-10-05T01:00:56.546Z,100497.33
2022-10-05T01:03:40.385Z,100491.20
2022-10-05T01:06:23.122Z,100487.50
2022-10-05T01:09:13.026Z,100487.14
2022-10-05T01:11:49.340Z,100492.05
2022-10-05T01:14:20.463Z,100489.95
2022-10-05T01:16:48.834Z,100495.23
2022-10-05T01:20:02.337Z,100494.17
2022-10-05T01:22:46.910Z,100493.30
2022-10-05T01:25:44.000Z,100495.58
2022-10-05T01:28:18.842Z,100485.40
2022-10-05T01:31:01.451Z,100480.84
2022-10-05T01:33:42.250Z,100471.89
2022-10-05T01:36:37.751Z,100469.61
2022-10-05T01:39:12.092Z,100476.46
2022-10-05T01:41:49.959Z,100476.46
2022-10-05T01:44:25.520Z,100477.35
2022-10-05T01:47:08.729Z,100475.41
2022-10-05T01:49:43.385Z,100478.91
2022-10-05T01:52:39.684Z,100472.42
2022-10-05T01:55:10.557Z,100472.42
2022-10-05T01:57:48.178Z,100474.88
2022-10-05T02:00:20.044Z,100477.52
2022-10-05T02:02:52.694Z,100473.83
2022-10-05T02:05:26.548Z,100468.91
2022-10-05T02:08:01.481Z,100464.52
2022-10-05T02:10:42.421Z,100453.83
2022-10-05T02:13:15.400Z,100453.99
2022-10-05T02:16:13.833Z,100459.79
2022-10-05T02:18:52.858Z,100451.89
2022-10-05T02:21:22.318Z,100443.47
2022-10-05T02:23:56.805Z,100454.52
2022-10-05T02:26:26.237Z,100453.30
2022-10-05T02:28:59.757Z,100455.23
2022-10-05T02:31:50.194Z,100465.94
2022-10-05T02:34:36.082Z,100465.23
2022-10-05T02:37:28.402Z,100465.94
2022-10-05T02:40:36.231Z,100470.50
2022-10-05T02:43:28.705Z,100469.27
2022-10-05T02:46:22.747Z,100471.73
2022-10-05T02:49:03.760Z,100469.09
2022-10-05T02:52:03.869Z,100476.98
2022-10-05T02:54:42.769Z,100474.52
2022-10-05T02:57:23.336Z,100475.59
2022-10-05T03:00:05.936Z,100471.19
2022-10-05T03:02:40.609Z,100470.48
2022-10-05T03:05:26.264Z,100473.30
2022-10-05T03:08:03.359Z,100470.33
2022-10-05T03:10:47.381Z,100461.38
2022-10-05T03:13:45.097Z,100461.20
2022-10-05T03:16:26.950Z,100455.77
2022-10-05T03:18:58.056Z,100459.97
2022-10-05T03:22:04.493Z,100462.07
2022-10-05T03:24:50.846Z,100463.83
2022-10-05T03:27:33.615Z,100464.36
2022-10-05T03:30:23.851Z,100466.12
2022-10-05T03:33:16.936Z,100462.96
2022-10-05T03:36:13.998Z,100459.80
2022-10-05T03:38:54.464Z,100456.99
2022-10-05T03:42:04.404Z,100452.09
2022-10-05T03:44:57.662Z,100449.98
2022-10-05T03:47:25.670Z,100441.91
2022-10-05T03:50:40.843Z,100433.50
2022-10-05T03:53:30.107Z,100428.23
2022-10-05T03:56:12.917Z,100432.27
2022-10-05T03:58:54.187Z,100423.14
2022-10-05T04:01:49.230Z,100424.89
2022-10-05T04:04:31.978Z,100415.08
2022-10-05T04:07:01.670Z,100409.12
2022-10-05T04:09:39.873Z,100406.48
2022-10-05T04:12:24.155Z,100411.92
2022-10-05T04:15:19.470Z,100416.13
2022-10-05T04:17:54.848Z,100419.64
2022-10-05T04:20:29.277Z,100423.85
2022-10-05T04:23:01.803Z,100434.56
2022-10-05T04:25:37.076Z,100431.21
2022-10-05T04:28:31.931Z,100424.37
2022-10-05T04:31:03.951Z,100407.52
2022-10-05T04:33:32.812Z,100396.65
2022-10-05T04:36:29.942Z,100394.20
2022-10-05T04:39:24.070Z,100379.64
2022-10-05T04:42:28.902Z,100389.98
2022-10-05T04:45:11.841Z,100389.46
2022-10-05T04:48:04.232Z,100392.97
2022-10-05T04:51:07.484Z,100384.73
2022-10-05T04:54:00.105Z,100364.73
2022-10-05T04:56:36.942Z,100372.97
2022-10-05T04:59:29.496Z,100367.38
2022-10-05T05:02:00.327Z,100367.37
2022-10-05T05:05:10.470Z,100371.23
2022-10-05T05:07:44.855Z,100375.27
2022-10-05T05:10:31.488Z,100374.73
2022-10-05T05:13:12.017Z,100372.29
2022-10-05T05:15:54.173Z,100375.98
2022-10-05T05:18:50.684Z,100378.08
2022-10-05T05:21:31.244Z,100381.05
2022-10-05T05:24:32.769Z,100385.45
2022-10-05T05:27:09.508Z,100375.27
2022-10-05T05:29:42.849Z,100367.73
2022-10-05T05:32:21.345Z,100381.42
2022-10-05T05:35:03.160Z,100388.95
2022-10-05T05:37:51.832Z,100396.86
2022-10-05T05:40:27.924Z,100400.02
2022-10-05T05:43:26.762Z,100394.21
2022-10-05T05:46:04.391Z,100395.98
2022-10-05T05:48:41.401Z,100401.23
2022-10-05T05:51:15.186Z,100401.94
2022-10-05T05:54:05.944Z,100397.20
2022-10-05T05:56:39.445Z,100401.94
2022-10-05T05:59:20.384Z,100400.02
2022-10-05T06:01:55.499Z,100403.70
2022-10-05T06:04:38.581Z,100390.20
2022-10-05T06:07:11.599Z,100390.89
2022-10-05T06:09:52.188Z,100394.92
2022-10-05T06:12:24.801Z,100395.27
2022-10-05T06:15:00.573Z,100394.05
2022-10-05T06:17:42.772Z,100391.77
2022-10-05T06:20:35.859Z,100398.25
2022-10-05T06:23:12.438Z,100397.91
2022-10-05T06:25:43.601Z,100390.72
2022-10-05T06:28:13.008Z,100385.80
2022-10-05T06:31:06.029Z,100385.98
2022-10-05T06:33:46.315Z,100381.77
2022-10-05T06:36:33.161Z,100376.31
2022-10-05T06:39:10.207Z,100380.02
2022-10-05T06:41:47.288Z,100388.61
2022-10-05T06:44:35.129Z,100398.27
2022-10-05T06:47:23.322Z,100405.79
2022-10-05T06:50:16.351Z,100405.09
2022-10-05T06:53:05.817Z,100412.79
2022-10-05T06:55:36.655Z,100415.26
2022-10-05T06:58:44.251Z,100415.25
2022-10-05T07:01:31.005Z,100414.20
2022-10-05T07:04:20.262Z,100415.79
2022-10-05T07:07:08.268Z,100422.09
2022-10-05T07:09:45.863Z,100423.31
2022-10-05T07:12:51.240Z,100408.41
2022-10-05T07:15:40.866Z,100409.64
2022-10-05T07:18:38.518Z,100411.56
2022-10-05T07:21:32.903Z,100423.31
2022-10-05T07:24:24.158Z,100430.15
2022-10-05T07:27:18.134Z,100433.84
2022-10-05T07:29:57.461Z,100433.12
2022-10-05T07:32:36.877Z,100427.67
2022-10-05T07:35:30.766Z,100427.14
2022-10-05T07:38:07.430Z,100426.45
2022-10-05T07:40:45.190Z,100417.30
2022-10-05T07:43:18.490Z,100413.45
2022-10-05T07:45:53.403Z,100412.04
2022-10-05T07:48:26.424Z,100416.08
2022-10-05T07:51:01.788Z,100418.53
2022-10-05T07:54:08.620Z,100410.45
2022-10-05T07:56:43.562Z,100406.55
2022-10-05T07:59:19.638Z,100403.06
2022-10-05T08:01:54.834Z,100405.50
2022-10-05T08:04:28.397Z,100412.71
2022-10-05T08:07:06.908Z,100412.87
2022-10-05T08:10:01.736Z,100417.23
2022-10-05T08:12:55.728Z,100418.63
2022-10-05T08:15:31.197Z,100418.79
2022-10-05T08:18:11.387Z,100423.52
2022-10-05T08:20:45.093Z,100424.39
2022-10-05T08:23:21.152Z,100422.95
2022-10-05T08:26:07.640Z,100422.60
2022-10-05T08:29:14.042Z,100416.07
2022-10-05T08:31:48.995Z,100420.46
2022-10-05T08:34:30.180Z,100419.41
2022-10-05T08:37:30.653Z,100416.59
2022-10-05T08:40:43.247Z,100405.16
2022-10-05T08:43:26.400Z,100401.63
2022-10-05T08:46:21.666Z,100397.58
2022-10-05T08:48:58.722Z,100389.66
2022-10-05T08:51:32.916Z,100388.61
2022-10-05T08:54:34.336Z,100389.14
2022-10-05T08:57:26.802Z,100382.44
2022-10-05T09:00:11.803Z,100378.36
2022-10-05T09:02:54.997Z,100373.77
2022-10-05T09:05:58.450Z,100370.41
2022-10-05T09:09:24.082Z,100367.60
2022-10-05T09:12:21.959Z,100369.35
2022-10-05T09:15:26.907Z,100373.02
2022-10-05T09:18:25.758Z,100377.95
2022-10-05T09:21:20.707Z,100382.13
2022-10-05T09:24:15.649Z,100383.53
2022-10-05T09:26:59.021Z,100375.78
2022-10-05T09:29:54.748Z,100378.42
2022-10-05T09:32:46.502Z,100379.84
2022-10-05T09:35:57.401Z,100378.44
2022-10-05T09:38:28.628Z,100384.59
2022-10-05T09:41:05.386Z,100385.64
2022-10-05T09:43:36.404Z,100385.30
2022-10-05T09:46:22.827Z,100383.17
2022-10-05T09:49:28.665Z,100380.88
2022-10-05T09:52:19.102Z,100367.16
2022-10-05T09:55:25.771Z,100364.84
2022-10-05T09:58:28.417Z,100361.30
2022-10-05T10:01:15.985Z,100361.48
2022-10-05T10:03:59.833Z,100374.84
2022-10-05T10:07:05.363Z,100372.71
2022-10-05T10:09:38.689Z,100371.65
2022-10-05T10:12:41.556Z,100361.95
2022-10-05T10:15:09.696Z,100359.31
2022-10-05T10:17:49.731Z,100358.43
2022-10-05T10:20:35.863Z,100359.46
2022-10-05T10:23:15.577Z,100365.96
2022-10-05T10:26:07.105Z,100371.91
2022-10-05T10:28:47.699Z,100376.61
2022-10-05T10:31:43.394Z,100374.12
2022-10-05T10:34:50.226Z,100369.55
2022-10-05T10:37:27.289Z,100366.02
2022-10-05T10:40:23.481Z,100364.79
2022-10-05T10:43:12.386Z,100366.49
2022-10-05T10:45:53.910Z,100364.88
2022-10-05T10:48:31.092Z,100368.38
2022-10-05T10:51:08.547Z,100362.92
2022-10-05T10:54:19.719Z,100362.55
2022-10-05T10:56:48.389Z,100358.84
2022-10-05T10:59:52.415Z,100356.88
2022-10-05T11:02:20.669Z,100354.21
2022-10-05T11:04:54.635Z,100358.77
2022-10-05T11:07:33.588Z,100356.79
2022-10-05T11:10:46.301Z,100355.35
2022-10-05T11:13:42.144Z,100358.09
2022-10-05T11:16:40.126Z,100354.86
2022-10-05T11:19:46.211Z,100354.46
2022-10-05T11:22:42.092Z,100354.41
2022-10-05T11:25:35.019Z,100361.07
2022-10-05T11:28:38.265Z,100363.49
2022-10-05T11:31:09.019Z,100362.05
2022-10-05T11:33:40.237Z,100360.98
2022-10-05T11:36:53.837Z,100357.06
2022-10-05T11:39:55.777Z,100354.45
2022-10-05T11:42:43.349Z,100356.92
2022-10-05T11:45:19.272Z,100352.67
2022-10-05T11:48:24.805Z,100347.35
2022-10-05T11:51:05.301Z,100353.49
2022-10-05T11:53:37.787Z,100339.92
2022-10-05T11:56:24.213Z,100335.88
2022-10-05T11:59:21.660Z,100323.89
2022-10-05T12:01:56.262Z,100320.52
2022-10-05T12:04:52.035Z,100325.06
2022-10-05T12:07:38.082Z,100319.38
2022-10-05T12:10:29.066Z,100318.83
2022-10-05T12:13:27.894Z,100324.29
2022-10-05T12:15:59.141Z,100323.79
2022-10-05T12:18:30.294Z,100316.73
2022-10-05T12:20:58.253Z,100316.51
2022-10-05T12:23:34.731Z,100317.17
2022-10-05T12:26:15.017Z,100314.52
2022-10-05T12:29:07.816Z,100315.21
2022-10-05T12:31:53.758Z,100316.27
2022-10-05T12:34:43.061Z,100314.27
2022-10-05T12:37:42.675Z,100310.15
2022-10-05T12:40:59.797Z,100309.35
2022-10-05T12:43:53.938Z,100305.98
2022-10-05T12:46:33.227Z,100302.59
2022-10-05T12:49:07.337Z,100303.63
2022-10-05T12:52:16.419Z,100302.21
2022-10-05T12:55:05.629Z,100300.95
2022-10-05T12:57:34.135Z,100294.05
2022-10-05T13:00:23.487Z,100288.77
2022-10-05T13:03:12.710Z,100283.45
2022-10-05T13:05:49.581Z,100277.61
2022-10-05T13:08:32.498Z,100280.07
2022-10-05T13:11:25.052Z,100278.77
2022-10-05T13:14:19.367Z,100280.46
2022-10-05T13:17:28.606Z,100274.09
2022-10-05T13:20:03.299Z,100271.60
2022-10-05T13:22:40.612Z,100270.67
2022-10-05T13:25:25.953Z,100267.64
2022-10-05T13:28:28.997Z,100271.10
2022-10-05T13:31:02.709Z,100270.86
2022-10-05T13:33:55.780Z,100268.16
2022-10-05T13:36:49.039Z,100262.47
2022-10-05T13:39:35.072Z,100262.62
2022-10-05T13:42:15.489Z,100257.11
2022-10-05T13:45:13.008Z,100262.15
2022-10-05T13:48:11.409Z,100257.15
2022-10-05T13:51:17.185Z,100252.80
2022-10-05T13:53:56.123Z,100253.37
2022-10-05T13:56:37.907Z,100253.30
2022-10-05T13:59:55.952Z,100255.70
2022-10-05T14:02:35.786Z,100249.47
2022-10-05T14:05:44.060Z,100244.83
2022-10-05T14:08:19.699Z,100241.99
2022-10-05T14:10:48.893Z,100241.14
2022-10-05T14:13:19.741Z,100236.94
2022-10-05T14:16:13.304Z,100232.89
2022-10-05T14:19:25.455Z,100233.07
2022-10-05T14:22:10.600Z,100230.58
2022-10-05T14:25:17.195Z,100233.36
2022-10-05T14:28:02.395Z,100231.12
2022-10-05T14:30:32.688Z,100232.22
2022-10-05T14:33:04.008Z,100229.95
2022-10-05T14:35:49.022Z,100237.16
2022-10-05T14:38:29.880Z,100237.48
2022-10-05T14:41:05.822Z,100237.09
2022-10-05T14:43:35.522Z,100232.14
2022-10-05T14:46:23.220Z,100229.17
2022-10-05T14:49:21.575Z,100225.91
2022-10-05T14:51:51.755Z,100228.08
2022-10-05T14:54:32.196Z,100229.83
2022-10-05T14:57:19.963Z,100233.52
2022-10-05T15:00:12.486Z,100233.14
2022-10-05T15:02:48.160Z,100235.27
2022-10-05T15:05:24.852Z,100234.59
2022-10-05T15:08:00.911Z,100232.52
2022-10-05T15:10:41.795Z,100234.47
2022-10-05T15:13:17.661Z,100239.02
2022-10-05T15:15:56.688Z,100233.02
2022-10-05T15:18:56.902Z,100237.06
2022-10-05T15:21:45.932Z,100229.89
2022-10-05T15:24:22.530Z,100225.70
2022-10-05T15:26:55.095Z,100225.03
2022-10-05T15:29:32.512Z,100221.88
2022-10-05T15:32:14.653Z,100217.98
2022-10-05T15:35:04.153Z,100217.48
2022-10-05T15:37:50.228Z,100213.11
2022-10-05T15:40:28.645Z,100212.64
2022-10-05T15:43:03.781Z,100210.21
2022-10-05T15:45:39.655Z,100210.11
2022-10-05T15:48:18.095Z,100205.55
2022-10-05T15:51:29.845Z,100202.58
2022-10-05T15:54:48.238Z,100200.28
2022-10-05T15:57:34.179Z,100207.31
2022-10-05T16:00:10.741Z,100203.46
2022-10-05T16:03:14.191Z,100202.95
2022-10-05T16:06:08.048Z,100199.43
2022-10-05T16:08:50.998Z,100201.24
2022-10-05T16:11:43.334Z,100197.91
2022-10-05T16:14:18.330Z,100198.16
2022-10-05T16:17:07.159Z,100196.27
2022-10-05T16:19:56.719Z,100197.05
2022-10-05T16:22:39.909Z,100193.94
2022-10-05T16:25:16.413Z,100191.70
2022-10-05T16:28:20.922Z,100191.96
2022-10-05T16:31:13.297Z,100188.90
2022-10-05T16:33:59.918Z,100188.06
2022-10-05T16:36:48.333Z,100188.85
2022-10-05T16:39:55.054Z,100181.70
2022-10-05T16:42:42.128Z,100182.46
2022-10-05T16:45:22.320Z,100186.73
2022-10-05T16:48:02.304Z,100184.28
2022-10-05T16:51:12.263Z,100189.64
2022-10-05T16:54:05.233Z,100185.00
2022-10-05T16:56:42.700Z,100185.61
2022-10-05T16:59:28.849Z,100190.04
2022-10-05T17:02:24.623Z,100195.17
2022-10-05T17:05:14.191Z,100191.88
2022-10-05T17:08:34.606Z,100192.29
2022-10-05T17:11:17.809Z,100198.20
2022-10-05T17:14:32.185Z,100195.27
2022-10-05T17:17:16.052Z,100200.08
2022-10-05T17:19:57.703Z,100199.08
2022-10-05T17:22:59.471Z,100201.91
2022-10-05T17:25:46.640Z,100199.48
2022-10-05T17:28:37.407Z,100203.39
2022-10-05T17:31:07.800Z,100198.51
2022-10-05T17:33:59.073Z,100199.04
2022-10-05T17:36:47.725Z,100202.91
2022-10-05T17:39:23.454Z,100198.04
2022-10-05T17:41:51.861Z,100197.38
2022-10-05T17:44:27.167Z,100200.41
2022-10-05T17:47:47.409Z,100197.45
2022-10-05T17:51:07.382Z,100195.92
2022-10-05T17:54:40.364Z,100194.89
2022-10-05T17:57:09.457Z,100194.41
2022-10-05T17:59:57.752Z,100195.31
2022-10-05T18:03:10.441Z,100190.59
2022-10-05T18:05:41.599Z,100193.42
2022-10-05T18:08:13.067Z,100191.14
2022-10-05T18:11:36.009Z,100190.61
2022-10-05T18:14:20.160Z,100187.81
2022-10-05T18:17:11.851Z,100187.17
2022-10-05T18:20:35.315Z,100183.86
2022-10-05T18:23:31.033Z,100186.69
2022-10-05T18:26:28.199Z,100183.55
2022-10-05T18:30:14.243Z,100182.88
2022-10-05T18:33:21.607Z,100183.46
2022-10-05T18:36:27.297Z,100189.63
2022-10-05T18:39:47.476Z,100186.82
2022-10-05T18:42:41.800Z,100188.23
2022-10-05T18:51:52.003Z,100195.30
2022-10-05T18:54:59.599Z,100191.59
2022-10-05T18:57:34.855Z,100198.60
2022-10-05T19:04:37.223Z,100201.28
2022-10-05T19:07:41.374Z,100197.77
2022-10-05T19:11:36.042Z,100195.98
2022-10-05T19:46:24.253Z,100173.12
2022-10-05T20:19:03.390Z,100185.61
2022-10-05T20:22:22.122Z,100184.79
2022-10-05T20:26:40.019Z,100191.85
2022-10-05T21:08:04.567Z,100204.71
2022-10-05T21:10:43.501Z,100201.39
2022-10-05T21:51:46.450Z,100217.98
2022-10-05T21:54:32.316Z,100213.23
2022-10-05T21:57:29.813Z,100217.27
2022-10-05T22:00:26.680Z,100210.58
2022-10-05T22:02:55.158Z,100213.07
2022-10-05T22:06:07.341Z,100220.98
2022-10-05T22:09:19.668Z,100217.64
2022-10-05T22:11:52.731Z,100221.34
2022-10-05T22:14:21.214Z,100217.83
2022-10-05T22:16:49.634Z,100220.11
2022-10-05T22:19:20.532Z,100222.76
2022-10-05T22:21:48.832Z,100219.05
2022-10-05T22:24:20.048Z,100223.08
2022-10-05T22:26:51.737Z,100224.48
2022-10-05T22:29:20.615Z,100228.20
2022-10-05T22:31:49.647Z,100227.85
2022-10-05T22:34:18.453Z,100229.08
2022-10-05T22:36:50.209Z,100226.61
2022-10-05T22:39:22.839Z,100233.64
2022-10-05T22:42:07.484Z,100235.58
2022-10-05T22:44:36.311Z,100233.14
2022-10-05T22:50:06.586Z,100234.73
2022-10-05T22:52:35.009Z,100236.67
2022-10-05T22:56:00.276Z,100234.02
2022-10-05T22:59:40.529Z,100236.14
2022-10-05T23:02:18.197Z,100233.34
2022-10-05T23:04:54.923Z,100229.66
2022-10-05T23:07:24.311Z,100230.88
2022-10-05T23:09:56.727Z,100237.70
2022-10-05T23:12:25.133Z,100232.95
2022-10-05T23:14:53.316Z,100222.59
2022-10-05T23:17:21.445Z,100231.59
2022-10-05T23:19:49.918Z,100232.82
2022-10-05T23:22:20.894Z,100232.81
2022-10-05T23:24:53.824Z,100232.81
2022-10-05T23:27:25.569Z,100237.05
2022-10-05T23:29:57.050Z,100233.90
2022-10-05T23:32:25.175Z,100234.09
2022-10-05T23:34:53.216Z,100235.69
2022-10-05T23:37:22.823Z,100235.69
2022-10-05T23:39:50.976Z,100238.31
2022-10-05T23:42:20.386Z,100235.86
2022-10-05T23:44:48.512Z,100236.05
2022-10-05T23:47:16.729Z,100237.83
2022-10-05T23:49:44.796Z,100235.90
2022-10-05T23:52:12.920Z,100230.63
2022-10-05T23:54:41.270Z,100236.41
2022-10-05T23:57:09.353Z,100238.34
2022-10-05T23:59:37.392Z,100235.89
